Doniphan, Arkansas
Current Conditions -  °F | °C
As of 8:56 PM on Thursday 27 Nov 2014 (Local Time) from KSRC Reporting Station
Clear Clear  
Wind Chill: -1°   Ceiling: Unl
Heat Index: -1°   Visibility: 10mi
Dew Point: -2°   Wind: 0mph
Humidity: 89%   Direction: NA
Pressure: 30.48"   Gusts: NA
Location:  35.2662°N, 91.8491°W
Report Text: KSRC 280256Z AUTO 00000KT 10SM CLR M01/M02 A3048 RMK AO2 SLP329 T10061022 53000 FZRANO TSNO
Loading
Personal Weather Stations






























Interactive Weather Map New forecast layout! Learn more

10-Day Weather Forecast

Advertisements
Track Severe Weather on mobile